sensor_id;sensor_type;location;lat;lon;timestamp;temperature;humidity
22436;DHT22;11385;50.822;4.324;2023-02-01T00:02:06;7.40;99.90
22436;DHT22;11385;50.822;4.324;2023-02-01T00:04:32;7.40;99.90
22436;DHT22;11385;50.822;4.324;2023-02-01T00:06:59;7.30;99.90
22436;DHT22;11385;50.822;4.324;2023-02-01T00:09:27;7.60;99.90
22436;DHT22;11385;50.822;4.324;2023-02-01T00:11:53;7.40;99.90
22436;DHT22;11385;50.822;4.324;2023-02-01T00:14:21;7.30;99.90
22436;DHT22;11385;50.822;4.324;2023-02-01T00:16:47;7.30;99.90
22436;DHT22;11385;50.822;4.324;2023-02-01T00:19:14;7.30;99.90
22436;DHT22;11385;50.822;4.324;2023-02-01T00:21:41;7.30;99.90
22436;DHT22;11385;50.822;4.324;2023-02-01T00:24:10;7.40;99.90
22436;DHT22;11385;50.822;4.324;2023-02-01T00:26:40;7.50;99.90
22436;DHT22;11385;50.822;4.324;2023-02-01T00:29:10;7.60;99.90
22436;DHT22;11385;50.822;4.324;2023-02-01T00:31:38;7.50;99.90
22436;DHT22;11385;50.822;4.324;2023-02-01T00:34:05;7.40;99.90
22436;DHT22;11385;50.822;4.324;2023-02-01T00:36:32;7.50;99.90
22436;DHT22;11385;50.822;4.324;2023-02-01T00:38:58;7.50;99.90
22436;DHT22;11385;50.822;4.324;2023-02-01T00:41:25;7.50;99.90
22436;DHT22;11385;50.822;4.324;2023-02-01T00:43:52;7.40;99.90
22436;DHT22;11385;50.822;4.324;2023-02-01T00:46:19;7.40;99.90
22436;DHT22;11385;50.822;4.324;2023-02-01T00:48:48;7.40;99.90
22436;DHT22;11385;50.822;4.324;2023-02-01T00:51:16;7.50;99.90
22436;DHT22;11385;50.822;4.324;2023-02-01T00:53:44;7.30;99.90
22436;DHT22;11385;50.822;4.324;2023-02-01T00:56:11;7.30;99.90
22436;DHT22;11385;50.822;4.324;2023-02-01T00:58:38;7.30;99.90
22436;DHT22;11385;50.822;4.324;2023-02-01T01:01:08;7.50;99.90
22436;DHT22;11385;50.822;4.324;2023-02-01T01:03:37;7.30;99.90
22436;DHT22;11385;50.822;4.324;2023-02-01T01:06:06;7.10;99.90
22436;DHT22;11385;50.822;4.324;2023-02-01T01:08:34;7.20;99.90
22436;DHT22;11385;50.822;4.324;2023-02-01T01:11:09;7.20;99.90
22436;DHT22;11385;50.822;4.324;2023-02-01T01:13:36;7.20;99.90
22436;DHT22;11385;50.822;4.324;2023-02-01T01:16:04;7.20;99.90
22436;DHT22;11385;50.822;4.324;2023-02-01T01:18:32;7.20;99.90
22436;DHT22;11385;50.822;4.324;2023-02-01T01:20:59;7.20;99.90
22436;DHT22;11385;50.822;4.324;2023-02-01T01:23:27;7.30;99.90
22436;DHT22;11385;50.822;4.324;2023-02-01T01:25:54;7.30;99.90
22436;DHT22;11385;50.822;4.324;2023-02-01T01:28:20;7.30;99.90
22436;DHT22;11385;50.822;4.324;2023-02-01T01:30:47;7.30;99.90
22436;DHT22;11385;50.822;4.324;2023-02-01T01:33:14;7.30;99.90
22436;DHT22;11385;50.822;4.324;2023-02-01T01:35:40;7.30;99.90
22436;DHT22;11385;50.822;4.324;2023-02-01T01:38:08;7.40;99.90
22436;DHT22;11385;50.822;4.324;2023-02-01T01:40:34;7.40;99.90
22436;DHT22;11385;50.822;4.324;2023-02-01T01:43:01;7.50;99.90
22436;DHT22;11385;50.822;4.324;2023-02-01T01:45:30;7.50;99.90
22436;DHT22;11385;50.822;4.324;2023-02-01T01:47:59;7.40;99.90
22436;DHT22;11385;50.822;4.324;2023-02-01T01:50:31;7.50;99.90
22436;DHT22;11385;50.822;4.324;2023-02-01T01:53:00;7.60;99.90
22436;DHT22;11385;50.822;4.324;2023-02-01T01:55:31;7.60;99.90
22436;DHT22;11385;50.822;4.324;2023-02-01T01:58:02;7.60;99.90
22436;DHT22;11385;50.822;4.324;2023-02-01T02:00:28;7.70;99.90
22436;DHT22;11385;50.822;4.324;2023-02-01T02:03:00;7.60;99.90
22436;DHT22;11385;50.822;4.324;2023-02-01T02:05:30;7.40;99.90
22436;DHT22;11385;50.822;4.324;2023-02-01T02:07:58;7.50;99.90
22436;DHT22;11385;50.822;4.324;2023-02-01T02:10:27;7.60;99.90
22436;DHT22;11385;50.822;4.324;2023-02-01T02:12:59;7.40;99.90
22436;DHT22;11385;50.822;4.324;2023-02-01T02:15:26;7.30;99.90
22436;DHT22;11385;50.822;4.324;2023-02-01T02:18:00;7.30;99.90
22436;DHT22;11385;50.822;4.324;2023-02-01T02:20:40;7.40;99.90
22436;DHT22;11385;50.822;4.324;2023-02-01T02:23:19;7.30;99.90
22436;DHT22;11385;50.822;4.324;2023-02-01T02:26:06;7.40;99.90
22436;DHT22;11385;50.822;4.324;2023-02-01T02:31:21;7.50;99.90
22436;DHT22;11385;50.822;4.324;2023-02-01T02:33:51;7.40;99.90
22436;DHT22;11385;50.822;4.324;2023-02-01T02:36:23;7.40;99.90
22436;DHT22;11385;50.822;4.324;2023-02-01T02:38:57;7.50;99.90
22436;DHT22;11385;50.822;4.324;2023-02-01T02:41:32;7.50;99.90
22436;DHT22;11385;50.822;4.324;2023-02-01T02:44:13;7.50;99.90
22436;DHT22;11385;50.822;4.324;2023-02-01T02:46:48;7.40;99.90
22436;DHT22;11385;50.822;4.324;2023-02-01T02:49:27;7.30;99.90
22436;DHT22;11385;50.822;4.324;2023-02-01T02:51:59;7.30;99.90
22436;DHT22;11385;50.822;4.324;2023-02-01T02:54:36;7.30;99.90
22436;DHT22;11385;50.822;4.324;2023-02-01T02:57:11;7.30;99.90
22436;DHT22;11385;50.822;4.324;2023-02-01T02:59:45;7.30;99.90
22436;DHT22;11385;50.822;4.324;2023-02-01T03:02:20;7.30;99.90
22436;DHT22;11385;50.822;4.324;2023-02-01T03:04:54;7.30;99.90
22436;DHT22;11385;50.822;4.324;2023-02-01T03:10:03;7.40;99.90
22436;DHT22;11385;50.822;4.324;2023-02-01T03:12:33;7.30;99.90
22436;DHT22;11385;50.822;4.324;2023-02-01T03:15:10;7.30;99.90
22436;DHT22;11385;50.822;4.324;2023-02-01T03:17:40;7.30;99.90
22436;DHT22;11385;50.822;4.324;2023-02-01T03:20:09;7.20;99.90
22436;DHT22;11385;50.822;4.324;2023-02-01T03:22:41;7.20;99.90
22436;DHT22;11385;50.822;4.324;2023-02-01T03:25:12;7.00;99.90
22436;DHT22;11385;50.822;4.324;2023-02-01T03:27:44;6.90;99.90
22436;DHT22;11385;50.822;4.324;2023-02-01T03:30:17;6.80;99.90
22436;DHT22;11385;50.822;4.324;2023-02-01T03:32:47;6.90;99.90
22436;DHT22;11385;50.822;4.324;2023-02-01T03:35:24;7.00;99.90
22436;DHT22;11385;50.822;4.324;2023-02-01T03:37:52;6.90;99.90
22436;DHT22;11385;50.822;4.324;2023-02-01T03:40:19;6.80;99.90
22436;DHT22;11385;50.822;4.324;2023-02-01T03:42:49;6.60;99.90
22436;DHT22;11385;50.822;4.324;2023-02-01T03:45:18;6.70;99.90
22436;DHT22;11385;50.822;4.324;2023-02-01T03:47:48;6.70;99.90
22436;DHT22;11385;50.822;4.324;2023-02-01T03:50:20;6.70;99.90
22436;DHT22;11385;50.822;4.324;2023-02-01T03:52:53;6.70;99.90
22436;DHT22;11385;50.822;4.324;2023-02-01T03:55:22;6.80;99.90
22436;DHT22;11385;50.822;4.324;2023-02-01T03:57:55;6.70;99.90
22436;DHT22;11385;50.822;4.324;2023-02-01T04:00:23;6.60;99.90
22436;DHT22;11385;50.822;4.324;2023-02-01T04:02:51;6.60;99.90
22436;DHT22;11385;50.822;4.324;2023-02-01T04:05:18;6.50;99.90
22436;DHT22;11385;50.822;4.324;2023-02-01T04:07:45;6.40;99.90
22436;DHT22;11385;50.822;4.324;2023-02-01T04:10:12;6.50;99.90
22436;DHT22;11385;50.822;4.324;2023-02-01T04:12:39;6.50;99.90
22436;DHT22;11385;50.822;4.324;2023-02-01T04:15:06;6.40;99.90
22436;DHT22;11385;50.822;4.324;2023-02-01T04:17:34;6.30;99.90
22436;DHT22;11385;50.822;4.324;2023-02-01T04:20:00;6.40;99.90
22436;DHT22;11385;50.822;4.324;2023-02-01T04:22:27;6.40;99.90
22436;DHT22;11385;50.822;4.324;2023-02-01T04:24:54;6.40;99.90
22436;DHT22;11385;50.822;4.324;2023-02-01T04:27:21;6.50;99.90
22436;DHT22;11385;50.822;4.324;2023-02-01T04:29:47;6.50;99.90
22436;DHT22;11385;50.822;4.324;2023-02-01T04:32:16;6.40;99.90
22436;DHT22;11385;50.822;4.324;2023-02-01T04:34:43;6.30;99.90
22436;DHT22;11385;50.822;4.324;2023-02-01T04:37:09;6.30;99.90
22436;DHT22;11385;50.822;4.324;2023-02-01T04:39:36;6.30;99.90
22436;DHT22;11385;50.822;4.324;2023-02-01T04:42:03;6.20;99.90
22436;DHT22;11385;50.822;4.324;2023-02-01T04:44:30;6.20;99.90
22436;DHT22;11385;50.822;4.324;2023-02-01T04:46:57;6.00;99.90
22436;DHT22;11385;50.822;4.324;2023-02-01T04:49:25;6.00;99.90
22436;DHT22;11385;50.822;4.324;2023-02-01T04:51:52;6.00;99.90
22436;DHT22;11385;50.822;4.324;2023-02-01T04:54:19;6.00;99.90
22436;DHT22;11385;50.822;4.324;2023-02-01T04:56:45;5.90;99.90
22436;DHT22;11385;50.822;4.324;2023-02-01T04:59:12;5.80;99.90
22436;DHT22;11385;50.822;4.324;2023-02-01T05:01:39;5.80;99.90
22436;DHT22;11385;50.822;4.324;2023-02-01T05:04:06;5.70;99.90
22436;DHT22;11385;50.822;4.324;2023-02-01T05:06:32;5.80;99.90
22436;DHT22;11385;50.822;4.324;2023-02-01T05:08:59;5.70;99.90
22436;DHT22;11385;50.822;4.324;2023-02-01T05:11:25;5.70;99.90
22436;DHT22;11385;50.822;4.324;2023-02-01T05:13:58;5.70;99.90
22436;DHT22;11385;50.822;4.324;2023-02-01T05:16:26;5.70;99.90
22436;DHT22;11385;50.822;4.324;2023-02-01T05:18:53;5.80;99.90
22436;DHT22;11385;50.822;4.324;2023-02-01T05:21:20;5.70;99.90
22436;DHT22;11385;50.822;4.324;2023-02-01T05:23:46;5.70;99.90
22436;DHT22;11385;50.822;4.324;2023-02-01T05:26:19;5.70;99.90
22436;DHT22;11385;50.822;4.324;2023-02-01T05:28:45;5.60;99.90
22436;DHT22;11385;50.822;4.324;2023-02-01T05:31:12;5.60;99.90
22436;DHT22;11385;50.822;4.324;2023-02-01T05:33:38;5.60;99.90
22436;DHT22;11385;50.822;4.324;2023-02-01T05:36:05;5.50;99.90
22436;DHT22;11385;50.822;4.324;2023-02-01T05:38:32;5.60;99.90
22436;DHT22;11385;50.822;4.324;2023-02-01T05:40:59;5.50;99.90
22436;DHT22;11385;50.822;4.324;2023-02-01T05:43:25;5.50;99.90
22436;DHT22;11385;50.822;4.324;2023-02-01T05:45:52;5.50;99.90
22436;DHT22;11385;50.822;4.324;2023-02-01T05:48:19;5.40;99.90
22436;DHT22;11385;50.822;4.324;2023-02-01T05:50:46;5.40;99.90
22436;DHT22;11385;50.822;4.324;2023-02-01T05:53:13;5.40;99.90
22436;DHT22;11385;50.822;4.324;2023-02-01T05:55:39;5.30;99.90
22436;DHT22;11385;50.822;4.324;2023-02-01T05:58:06;5.30;99.90
22436;DHT22;11385;50.822;4.324;2023-02-01T06:00:33;5.40;99.90
22436;DHT22;11385;50.822;4.324;2023-02-01T06:02:59;5.40;99.90
22436;DHT22;11385;50.822;4.324;2023-02-01T06:05:27;5.30;99.90
22436;DHT22;11385;50.822;4.324;2023-02-01T06:07:53;5.20;99.90
22436;DHT22;11385;50.822;4.324;2023-02-01T06:10:20;5.30;99.90
22436;DHT22;11385;50.822;4.324;2023-02-01T06:12:47;5.20;99.90
22436;DHT22;11385;50.822;4.324;2023-02-01T06:15:14;5.10;99.90
22436;DHT22;11385;50.822;4.324;2023-02-01T06:17:44;5.20;99.90
22436;DHT22;11385;50.822;4.324;2023-02-01T06:20:12;5.20;99.90
22436;DHT22;11385;50.822;4.324;2023-02-01T06:22:40;5.20;99.90
22436;DHT22;11385;50.822;4.324;2023-02-01T06:25:09;5.10;99.90
22436;DHT22;11385;50.822;4.324;2023-02-01T06:27:36;5.10;99.90
22436;DHT22;11385;50.822;4.324;2023-02-01T06:30:03;5.00;99.90
22436;DHT22;11385;50.822;4.324;2023-02-01T06:32:30;5.10;99.90
22436;DHT22;11385;50.822;4.324;2023-02-01T06:34:57;5.10;99.90
22436;DHT22;11385;50.822;4.324;2023-02-01T06:37:24;5.00;99.90
22436;DHT22;11385;50.822;4.324;2023-02-01T06:39:53;5.10;99.90
22436;DHT22;11385;50.822;4.324;2023-02-01T06:42:20;5.10;99.90
22436;DHT22;11385;50.822;4.324;2023-02-01T06:44:46;5.10;99.90
22436;DHT22;11385;50.822;4.324;2023-02-01T06:47:13;5.20;99.90
22436;DHT22;11385;50.822;4.324;2023-02-01T06:49:40;5.30;99.90
22436;DHT22;11385;50.822;4.324;2023-02-01T06:52:06;5.30;99.90
22436;DHT22;11385;50.822;4.324;2023-02-01T06:54:33;5.40;99.90
22436;DHT22;11385;50.822;4.324;2023-02-01T06:57:00;5.70;99.90
22436;DHT22;11385;50.822;4.324;2023-02-01T06:59:26;5.50;99.90
22436;DHT22;11385;50.822;4.324;2023-02-01T07:01:53;5.40;99.90
22436;DHT22;11385;50.822;4.324;2023-02-01T07:04:20;5.40;99.90
22436;DHT22;11385;50.822;4.324;2023-02-01T07:06:46;5.40;99.90
22436;DHT22;11385;50.822;4.324;2023-02-01T07:09:13;5.30;99.90
22436;DHT22;11385;50.822;4.324;2023-02-01T07:11:40;5.30;99.90
22436;DHT22;11385;50.822;4.324;2023-02-01T07:14:10;5.30;99.90
22436;DHT22;11385;50.822;4.324;2023-02-01T07:16:37;5.30;99.90
22436;DHT22;11385;50.822;4.324;2023-02-01T07:19:04;5.20;99.90
22436;DHT22;11385;50.822;4.324;2023-02-01T07:21:31;5.30;99.90
22436;DHT22;11385;50.822;4.324;2023-02-01T07:23:58;5.30;99.90
22436;DHT22;11385;50.822;4.324;2023-02-01T07:26:25;5.20;99.90
22436;DHT22;11385;50.822;4.324;2023-02-01T07:28:51;5.20;99.90
22436;DHT22;11385;50.822;4.324;2023-02-01T07:31:19;5.10;99.90
22436;DHT22;11385;50.822;4.324;2023-02-01T07:33:49;5.10;99.90
22436;DHT22;11385;50.822;4.324;2023-02-01T07:36:18;5.20;99.90
22436;DHT22;11385;50.822;4.324;2023-02-01T07:38:45;5.30;99.90
22436;DHT22;11385;50.822;4.324;2023-02-01T07:41:13;5.30;99.90
22436;DHT22;11385;50.822;4.324;2023-02-01T07:43:39;5.40;99.90
22436;DHT22;11385;50.822;4.324;2023-02-01T07:46:07;5.40;99.90
22436;DHT22;11385;50.822;4.324;2023-02-01T07:48:33;5.50;99.90
22436;DHT22;11385;50.822;4.324;2023-02-01T07:51:09;5.50;99.90
22436;DHT22;11385;50.822;4.324;2023-02-01T07:53:36;5.40;99.90
22436;DHT22;11385;50.822;4.324;2023-02-01T07:56:03;5.50;99.90
22436;DHT22;11385;50.822;4.324;2023-02-01T07:58:30;5.50;99.90
22436;DHT22;11385;50.822;4.324;2023-02-01T08:00:56;5.60;99.90
22436;DHT22;11385;50.822;4.324;2023-02-01T08:03:29;5.40;99.90
22436;DHT22;11385;50.822;4.324;2023-02-01T08:05:56;5.60;99.90
22436;DHT22;11385;50.822;4.324;2023-02-01T08:08:23;5.70;99.90
22436;DHT22;11385;50.822;4.324;2023-02-01T08:10:50;5.80;99.90
22436;DHT22;11385;50.822;4.324;2023-02-01T08:13:16;5.90;99.90
22436;DHT22;11385;50.822;4.324;2023-02-01T08:15:43;5.80;99.90
22436;DHT22;11385;50.822;4.324;2023-02-01T08:18:10;5.70;99.90
22436;DHT22;11385;50.822;4.324;2023-02-01T08:20:37;5.60;99.90
22436;DHT22;11385;50.822;4.324;2023-02-01T08:23:07;5.80;99.90
22436;DHT22;11385;50.822;4.324;2023-02-01T08:25:35;5.70;99.90
22436;DHT22;11385;50.822;4.324;2023-02-01T08:28:02;5.80;99.90
22436;DHT22;11385;50.822;4.324;2023-02-01T08:30:29;5.70;99.90
22436;DHT22;11385;50.822;4.324;2023-02-01T08:32:55;5.60;99.90
22436;DHT22;11385;50.822;4.324;2023-02-01T08:35:22;5.70;99.90
22436;DHT22;11385;50.822;4.324;2023-02-01T08:37:50;5.80;99.90
22436;DHT22;11385;50.822;4.324;2023-02-01T08:40:17;5.70;99.90
22436;DHT22;11385;50.822;4.324;2023-02-01T08:42:43;5.60;99.90
22436;DHT22;11385;50.822;4.324;2023-02-01T08:45:16;5.70;99.90
22436;DHT22;11385;50.822;4.324;2023-02-01T08:47:44;5.80;99.90
22436;DHT22;11385;50.822;4.324;2023-02-01T08:50:13;5.80;99.90
22436;DHT22;11385;50.822;4.324;2023-02-01T08:52:41;5.80;99.90
22436;DHT22;11385;50.822;4.324;2023-02-01T08:55:08;5.80;99.90
22436;DHT22;11385;50.822;4.324;2023-02-01T08:57:34;5.90;99.90
22436;DHT22;11385;50.822;4.324;2023-02-01T09:00:02;6.00;99.90
22436;DHT22;11385;50.822;4.324;2023-02-01T09:02:29;6.30;99.90
22436;DHT22;11385;50.822;4.324;2023-02-01T09:04:56;6.20;99.90
22436;DHT22;11385;50.822;4.324;2023-02-01T09:07:23;6.20;99.90
22436;DHT22;11385;50.822;4.324;2023-02-01T09:09:49;6.10;99.90
22436;DHT22;11385;50.822;4.324;2023-02-01T09:12:16;6.20;99.90
22436;DHT22;11385;50.822;4.324;2023-02-01T09:14:43;6.40;99.90
22436;DHT22;11385;50.822;4.324;2023-02-01T09:17:09;6.40;99.90
22436;DHT22;11385;50.822;4.324;2023-02-01T09:19:36;6.40;99.90
22436;DHT22;11385;50.822;4.324;2023-02-01T09:22:02;6.40;99.90
22436;DHT22;11385;50.822;4.324;2023-02-01T09:24:29;6.50;99.90
22436;DHT22;11385;50.822;4.324;2023-02-01T09:26:56;6.60;99.90
22436;DHT22;11385;50.822;4.324;2023-02-01T09:29:22;6.90;99.90
22436;DHT22;11385;50.822;4.324;2023-02-01T09:31:49;6.80;99.90
22436;DHT22;11385;50.822;4.324;2023-02-01T09:34:16;6.80;99.90
22436;DHT22;11385;50.822;4.324;2023-02-01T09:36:43;6.70;99.90
22436;DHT22;11385;50.822;4.324;2023-02-01T09:39:09;6.70;99.90
22436;DHT22;11385;50.822;4.324;2023-02-01T09:42:02;6.80;99.90
22436;DHT22;11385;50.822;4.324;2023-02-01T09:44:40;6.80;99.90
22436;DHT22;11385;50.822;4.324;2023-02-01T09:47:13;6.80;99.90
22436;DHT22;11385;50.822;4.324;2023-02-01T09:49:46;6.80;99.90
22436;DHT22;11385;50.822;4.324;2023-02-01T09:52:13;7.00;99.90
22436;DHT22;11385;50.822;4.324;2023-02-01T09:54:47;6.90;99.90
22436;DHT22;11385;50.822;4.324;2023-02-01T09:57:22;6.80;99.90
22436;DHT22;11385;50.822;4.324;2023-02-01T09:59:55;6.90;99.90
22436;DHT22;11385;50.822;4.324;2023-02-01T10:02:26;7.00;99.90
22436;DHT22;11385;50.822;4.324;2023-02-01T10:04:56;7.10;99.90
22436;DHT22;11385;50.822;4.324;2023-02-01T10:07:33;7.20;99.90
22436;DHT22;11385;50.822;4.324;2023-02-01T10:10:26;7.30;99.90
22436;DHT22;11385;50.822;4.324;2023-02-01T10:13:44;7.40;99.90
22436;DHT22;11385;50.822;4.324;2023-02-01T10:16:00;7.40;99.90
22436;DHT22;11385;50.822;4.324;2023-02-01T10:18:44;7.50;99.90
22436;DHT22;11385;50.822;4.324;2023-02-01T10:21:17;7.60;99.90
22436;DHT22;11385;50.822;4.324;2023-02-01T10:23:50;7.60;99.90
22436;DHT22;11385;50.822;4.324;2023-02-01T10:26:21;7.80;99.90
22436;DHT22;11385;50.822;4.324;2023-02-01T10:28:52;7.80;99.90
22436;DHT22;11385;50.822;4.324;2023-02-01T10:31:24;7.80;99.90
22436;DHT22;11385;50.822;4.324;2023-02-01T10:33:56;7.80;99.90
22436;DHT22;11385;50.822;4.324;2023-02-01T10:36:31;7.80;99.90
22436;DHT22;11385;50.822;4.324;2023-02-01T10:38:59;8.00;99.90
22436;DHT22;11385;50.822;4.324;2023-02-01T10:41:31;8.00;99.90
22436;DHT22;11385;50.822;4.324;2023-02-01T10:44:00;8.10;99.90
22436;DHT22;11385;50.822;4.324;2023-02-01T10:46:30;8.10;99.90
22436;DHT22;11385;50.822;4.324;2023-02-01T10:49:00;8.00;99.90
22436;DHT22;11385;50.822;4.324;2023-02-01T10:51:46;8.10;99.90
22436;DHT22;11385;50.822;4.324;2023-02-01T10:54:18;8.20;99.90
22436;DHT22;11385;50.822;4.324;2023-02-01T10:56:47;8.30;99.90
22436;DHT22;11385;50.822;4.324;2023-02-01T10:59:18;8.40;99.90
22436;DHT22;11385;50.822;4.324;2023-02-01T11:01:47;8.50;99.90
22436;DHT22;11385;50.822;4.324;2023-02-01T11:04:17;8.50;99.90
22436;DHT22;11385;50.822;4.324;2023-02-01T11:06:52;8.60;99.90
22436;DHT22;11385;50.822;4.324;2023-02-01T11:09:22;8.60;99.90
22436;DHT22;11385;50.822;4.324;2023-02-01T11:11:58;8.70;99.90
22436;DHT22;11385;50.822;4.324;2023-02-01T11:14:35;8.70;99.90
22436;DHT22;11385;50.822;4.324;2023-02-01T11:17:24;8.70;99.90
22436;DHT22;11385;50.822;4.324;2023-02-01T11:19:57;8.80;99.90
22436;DHT22;11385;50.822;4.324;2023-02-01T11:22:25;8.80;99.90
22436;DHT22;11385;50.822;4.324;2023-02-01T11:24:53;8.80;99.90
22436;DHT22;11385;50.822;4.324;2023-02-01T11:27:22;9.00;99.90
22436;DHT22;11385;50.822;4.324;2023-02-01T11:29:52;9.10;99.90
22436;DHT22;11385;50.822;4.324;2023-02-01T11:32:20;9.20;99.90
22436;DHT22;11385;50.822;4.324;2023-02-01T11:34:53;9.30;99.90
22436;DHT22;11385;50.822;4.324;2023-02-01T11:42:52;9.20;99.90
22436;DHT22;11385;50.822;4.324;2023-02-01T11:45:24;9.30;99.90
22436;DHT22;11385;50.822;4.324;2023-02-01T11:47:52;9.20;99.90
22436;DHT22;11385;50.822;4.324;2023-02-01T11:56:19;9.20;99.90
22436;DHT22;11385;50.822;4.324;2023-02-01T11:58:35;9.20;99.90
22436;DHT22;11385;50.822;4.324;2023-02-01T12:01:04;9.10;99.90
22436;DHT22;11385;50.822;4.324;2023-02-01T12:03:39;9.20;99.90
22436;DHT22;11385;50.822;4.324;2023-02-01T12:06:17;9.30;99.90
22436;DHT22;11385;50.822;4.324;2023-02-01T12:08:52;9.40;99.90
22436;DHT22;11385;50.822;4.324;2023-02-01T12:11:26;9.40;99.90
22436;DHT22;11385;50.822;4.324;2023-02-01T12:14:04;9.30;99.90
22436;DHT22;11385;50.822;4.324;2023-02-01T12:16:42;9.40;99.90
22436;DHT22;11385;50.822;4.324;2023-02-01T12:19:15;9.60;99.90
22436;DHT22;11385;50.822;4.324;2023-02-01T12:21:53;9.70;99.90
22436;DHT22;11385;50.822;4.324;2023-02-01T12:24:48;9.70;99.90
22436;DHT22;11385;50.822;4.324;2023-02-01T12:27:57;9.80;99.90
22436;DHT22;11385;50.822;4.324;2023-02-01T12:30:22;10.00;99.90
22436;DHT22;11385;50.822;4.324;2023-02-01T12:32:59;10.00;99.90
22436;DHT22;11385;50.822;4.324;2023-02-01T12:35:48;10.10;99.90
22436;DHT22;11385;50.822;4.324;2023-02-01T12:38:24;10.00;99.90
22436;DHT22;11385;50.822;4.324;2023-02-01T12:43:46;10.20;99.90
22436;DHT22;11385;50.822;4.324;2023-02-01T12:46:21;10.40;99.90
22436;DHT22;11385;50.822;4.324;2023-02-01T12:49:08;10.30;99.90
22436;DHT22;11385;50.822;4.324;2023-02-01T12:51:37;10.20;99.90
22436;DHT22;11385;50.822;4.324;2023-02-01T12:54:21;10.10;99.90
22436;DHT22;11385;50.822;4.324;2023-02-01T12:56:57;10.20;99.90
22436;DHT22;11385;50.822;4.324;2023-02-01T12:59:34;10.30;99.90
22436;DHT22;11385;50.822;4.324;2023-02-01T13:02:24;10.20;99.90
22436;DHT22;11385;50.822;4.324;2023-02-01T13:05:04;10.30;99.90
22436;DHT22;11385;50.822;4.324;2023-02-01T13:07:41;10.50;99.90
22436;DHT22;11385;50.822;4.324;2023-02-01T13:10:19;10.70;99.90
22436;DHT22;11385;50.822;4.324;2023-02-01T13:12:59;10.80;99.90
22436;DHT22;11385;50.822;4.324;2023-02-01T13:15:29;10.70;99.90
22436;DHT22;11385;50.822;4.324;2023-02-01T13:18:01;10.80;99.90
22436;DHT22;11385;50.822;4.324;2023-02-01T13:20:32;10.70;99.90
22436;DHT22;11385;50.822;4.324;2023-02-01T13:23:02;10.80;99.90
22436;DHT22;11385;50.822;4.324;2023-02-01T13:25:35;10.90;99.90
22436;DHT22;11385;50.822;4.324;2023-02-01T13:28:06;10.90;99.90
22436;DHT22;11385;50.822;4.324;2023-02-01T13:30:55;10.90;99.90
22436;DHT22;11385;50.822;4.324;2023-02-01T13:33:37;10.90;99.90
22436;DHT22;11385;50.822;4.324;2023-02-01T13:41:57;11.00;99.90
22436;DHT22;11385;50.822;4.324;2023-02-01T13:44:31;11.00;99.90
22436;DHT22;11385;50.822;4.324;2023-02-01T13:47:01;10.80;99.90
22436;DHT22;11385;50.822;4.324;2023-02-01T13:49:32;10.60;99.90
22436;DHT22;11385;50.822;4.324;2023-02-01T13:52:00;10.50;99.90
22436;DHT22;11385;50.822;4.324;2023-02-01T13:54:33;10.60;99.90
22436;DHT22;11385;50.822;4.324;2023-02-01T13:57:02;10.50;99.90
22436;DHT22;11385;50.822;4.324;2023-02-01T13:59:48;10.40;99.90
22436;DHT22;11385;50.822;4.324;2023-02-01T14:04:48;10.50;99.90
22436;DHT22;11385;50.822;4.324;2023-02-01T14:07:19;10.60;99.90
22436;DHT22;11385;50.822;4.324;2023-02-01T14:09:46;10.70;99.90
22436;DHT22;11385;50.822;4.324;2023-02-01T14:15:23;10.90;99.90
22436;DHT22;11385;50.822;4.324;2023-02-01T14:17:50;10.90;99.90
22436;DHT22;11385;50.822;4.324;2023-02-01T14:23:01;11.10;99.90
22436;DHT22;11385;50.822;4.324;2023-02-01T14:25:33;10.80;99.90
22436;DHT22;11385;50.822;4.324;2023-02-01T14:28:01;10.80;99.90
22436;DHT22;11385;50.822;4.324;2023-02-01T14:30:27;10.80;99.90
22436;DHT22;11385;50.822;4.324;2023-02-01T14:32:54;10.60;99.90
22436;DHT22;11385;50.822;4.324;2023-02-01T14:35:24;10.60;99.90
22436;DHT22;11385;50.822;4.324;2023-02-01T14:37:53;10.80;99.90
22436;DHT22;11385;50.822;4.324;2023-02-01T14:40:26;10.60;99.90
22436;DHT22;11385;50.822;4.324;2023-02-01T14:42:54;10.60;99.90
22436;DHT22;11385;50.822;4.324;2023-02-01T14:45:46;10.50;99.90
22436;DHT22;11385;50.822;4.324;2023-02-01T14:51:06;10.50;99.90
22436;DHT22;11385;50.822;4.324;2023-02-01T14:53:34;10.50;99.90
22436;DHT22;11385;50.822;4.324;2023-02-01T14:56:12;10.40;99.90
22436;DHT22;11385;50.822;4.324;2023-02-01T15:01:32;10.20;99.90
22436;DHT22;11385;50.822;4.324;2023-02-01T15:04:09;10.30;99.90
22436;DHT22;11385;50.822;4.324;2023-02-01T15:06:49;10.20;99.90
22436;DHT22;11385;50.822;4.324;2023-02-01T15:09:28;10.10;99.90
22436;DHT22;11385;50.822;4.324;2023-02-01T15:14:37;10.00;99.90
22436;DHT22;11385;50.822;4.324;2023-02-01T15:19:38;9.90;99.90
22436;DHT22;11385;50.822;4.324;2023-02-01T15:22:05;9.80;99.90
22436;DHT22;11385;50.822;4.324;2023-02-01T15:24:31;9.90;99.90
22436;DHT22;11385;50.822;4.324;2023-02-01T15:27:03;9.80;99.90
22436;DHT22;11385;50.822;4.324;2023-02-01T15:29:30;9.80;99.90
22436;DHT22;11385;50.822;4.324;2023-02-01T15:32:00;9.90;99.90
22436;DHT22;11385;50.822;4.324;2023-02-01T15:37:05;9.70;99.90
22436;DHT22;11385;50.822;4.324;2023-02-01T15:39:32;9.80;99.90
22436;DHT22;11385;50.822;4.324;2023-02-01T15:42:10;9.80;99.90
22436;DHT22;11385;50.822;4.324;2023-02-01T15:44:43;9.70;99.90
22436;DHT22;11385;50.822;4.324;2023-02-01T15:47:16;9.80;99.90
22436;DHT22;11385;50.822;4.324;2023-02-01T15:49:46;9.70;99.90
22436;DHT22;11385;50.822;4.324;2023-02-01T15:52:37;9.60;99.90
22436;DHT22;11385;50.822;4.324;2023-02-01T15:55:08;9.70;99.90
22436;DHT22;11385;50.822;4.324;2023-02-01T15:57:38;9.60;99.90
22436;DHT22;11385;50.822;4.324;2023-02-01T16:00:08;9.60;99.90
22436;DHT22;11385;50.822;4.324;2023-02-01T16:02:42;9.70;99.90
22436;DHT22;11385;50.822;4.324;2023-02-01T16:05:32;9.70;99.90
22436;DHT22;11385;50.822;4.324;2023-02-01T16:08:04;9.60;99.90
22436;DHT22;11385;50.822;4.324;2023-02-01T16:10:31;9.70;99.90
22436;DHT22;11385;50.822;4.324;2023-02-01T16:12:58;9.70;99.90
22436;DHT22;11385;50.822;4.324;2023-02-01T16:15:27;9.60;99.90
22436;DHT22;11385;50.822;4.324;2023-02-01T16:17:55;9.60;99.90
22436;DHT22;11385;50.822;4.324;2023-02-01T16:20:22;9.60;99.90
22436;DHT22;11385;50.822;4.324;2023-02-01T16:22:49;9.60;99.90
22436;DHT22;11385;50.822;4.324;2023-02-01T16:25:15;9.50;99.90
22436;DHT22;11385;50.822;4.324;2023-02-01T16:27:42;9.50;99.90
22436;DHT22;11385;50.822;4.324;2023-02-01T16:30:09;9.40;99.90
22436;DHT22;11385;50.822;4.324;2023-02-01T16:32:37;9.40;99.90
22436;DHT22;11385;50.822;4.324;2023-02-01T16:35:15;9.30;99.90
22436;DHT22;11385;50.822;4.324;2023-02-01T16:37:44;9.50;99.90
22436;DHT22;11385;50.822;4.324;2023-02-01T16:40:14;9.40;99.90
22436;DHT22;11385;50.822;4.324;2023-02-01T16:42:40;9.40;99.90
22436;DHT22;11385;50.822;4.324;2023-02-01T16:45:08;9.40;99.90
22436;DHT22;11385;50.822;4.324;2023-02-01T16:47:37;9.30;99.90
22436;DHT22;11385;50.822;4.324;2023-02-01T16:50:14;9.40;99.90
22436;DHT22;11385;50.822;4.324;2023-02-01T16:52:36;9.40;99.90